Time;durP1;ratioP1;P1;durP2;ratioP2;P2;SDS_P1;SDS_P2;PMS_P1;PMS_P2;Temp;Humidity;BMP_temperature;BMP_pressure;BME280_temperature;BME280_humidity;BME280_pressure;Samples;Min_cycle;Max_cycle;Signal;HPM_P1;HPM_P2
2023/12/20 00:02:06;;;;;;;32.55;15.18;;;;;;;;;;5038589;28;20025;-67
2023/12/20 00:04:32;;;;;;;36.85;16.15;;;;;;;;;;5036242;28;20033;-66
2023/12/20 00:06:57;;;;;;;33.55;15.20;;;;;;;;;;5037242;28;20029;-67
2023/12/20 00:09:22;;;;;;;31.90;15.52;;;;;;;;;;5027368;28;20119;-66
2023/12/20 00:11:47;;;;;;;34.93;15.37;;;;;;;;;;5035712;28;20035;-66
2023/12/20 00:14:13;;;;;;;32.47;15.07;;;;;;;;;;5036304;28;20316;-68
2023/12/20 00:16:38;;;;;;;33.03;15.18;;;;;;;;;;5034903;28;20288;-66
2023/12/20 00:19:03;;;;;;;31.85;15.70;;;;;;;;;;5038252;28;20033;-67
2023/12/20 00:21:28;;;;;;;35.87;14.67;;;;;;;;;;5038105;28;20025;-68
2023/12/20 00:23:54;;;;;;;35.13;15.10;;;;;;;;;;5035965;28;20332;-68
2023/12/20 00:26:19;;;;;;;32.17;14.85;;;;;;;;;;5028711;28;20273;-69
2023/12/20 00:28:44;;;;;;;33.03;15.07;;;;;;;;;;5028043;28;20541;-70
2023/12/20 00:31:10;;;;;;;31.77;15.18;;;;;;;;;;5035958;28;20345;-68
2023/12/20 00:33:35;;;;;;;30.17;14.25;;;;;;;;;;5036652;28;20364;-68
2023/12/20 00:36:00;;;;;;;35.27;15.13;;;;;;;;;;5035712;28;20033;-67
2023/12/20 00:38:25;;;;;;;30.50;14.50;;;;;;;;;;5036652;28;20262;-68
2023/12/20 00:40:51;;;;;;;31.13;15.80;;;;;;;;;;5034158;28;20486;-69
2023/12/20 00:43:16;;;;;;;31.70;15.52;;;;;;;;;;5026204;28;20086;-67
2023/12/20 00:45:41;;;;;;;33.97;15.57;;;;;;;;;;5039728;28;20689;-67
2023/12/20 00:48:07;;;;;;;33.50;15.43;;;;;;;;;;5046490;28;20016;-67
2023/12/20 00:50:32;;;;;;;33.47;15.45;;;;;;;;;;5042279;28;20022;-67
2023/12/20 00:52:57;;;;;;;34.43;15.30;;;;;;;;;;5056978;28;20044;-67
2023/12/20 00:55:23;;;;;;;35.47;15.05;;;;;;;;;;5056145;28;20283;-67
2023/12/20 00:57:48;;;;;;;33.10;14.60;;;;;;;;;;5047768;28;20459;-68
2023/12/20 01:00:13;;;;;;;32.72;14.68;;;;;;;;;;5036018;28;20128;-67
2023/12/20 01:02:40;;;;;;;34.72;15.45;;;;;;;;;;5034974;28;20086;-67
2023/12/20 01:05:07;;;;;;;43.45;16.27;;;;;;;;;;5036716;28;20024;-68
2023/12/20 01:07:32;;;;;;;35.58;16.02;;;;;;;;;;5034545;28;20033;-71
2023/12/20 01:09:57;;;;;;;35.47;15.43;;;;;;;;;;5039338;28;20033;-71
2023/12/20 01:12:22;;;;;;;34.58;15.25;;;;;;;;;;5037842;28;20048;-71
2023/12/20 01:14:48;;;;;;;34.00;15.23;;;;;;;;;;5024999;28;20037;-70
2023/12/20 01:17:13;;;;;;;39.20;16.15;;;;;;;;;;5028119;28;20278;-71
2023/12/20 01:19:39;;;;;;;34.85;15.27;;;;;;;;;;5038392;28;20025;-71
2023/12/20 01:22:04;;;;;;;33.72;15.38;;;;;;;;;;5035666;28;20025;-71
2023/12/20 01:24:29;;;;;;;33.78;15.65;;;;;;;;;;5037412;28;20021;-71
2023/12/20 01:26:54;;;;;;;33.57;15.10;;;;;;;;;;5036802;28;20108;-70
2023/12/20 01:29:20;;;;;;;34.50;14.93;;;;;;;;;;5038015;28;20935;-70
2023/12/20 01:31:45;;;;;;;35.83;14.93;;;;;;;;;;5038789;28;20258;-71
2023/12/20 01:34:10;;;;;;;28.23;14.50;;;;;;;;;;5033572;28;20044;-69
2023/12/20 01:36:36;;;;;;;33.20;15.23;;;;;;;;;;5036335;28;20013;-70
2023/12/20 01:39:01;;;;;;;33.43;14.93;;;;;;;;;;5055120;28;20028;-70
2023/12/20 01:41:26;;;;;;;32.58;14.60;;;;;;;;;;5039679;28;20348;-69
2023/12/20 01:43:53;;;;;;;32.63;14.43;;;;;;;;;;5029973;28;20029;-70
2023/12/20 01:46:18;;;;;;;33.88;14.93;;;;;;;;;;5041507;28;20052;-71
2023/12/20 01:48:44;;;;;;;31.88;14.68;;;;;;;;;;5041037;28;20114;-70
2023/12/20 01:51:10;;;;;;;31.27;14.35;;;;;;;;;;5024373;28;20025;-70
2023/12/20 01:53:36;;;;;;;30.20;13.45;;;;;;;;;;5040166;28;20092;-70
2023/12/20 01:56:01;;;;;;;33.72;14.88;;;;;;;;;;5026587;28;20429;-69
2023/12/20 01:58:26;;;;;;;35.13;14.30;;;;;;;;;;5036803;28;20120;-71
2023/12/20 02:00:52;;;;;;;30.88;15.05;;;;;;;;;;5041829;28;20501;-71
2023/12/20 02:03:18;;;;;;;28.10;13.07;;;;;;;;;;5041059;28;20116;-71
2023/12/20 02:05:44;;;;;;;31.70;14.50;;;;;;;;;;5029185;28;20618;-71
2023/12/20 02:08:09;;;;;;;34.53;14.68;;;;;;;;;;5042225;28;20049;-70
2023/12/20 02:10:34;;;;;;;30.60;13.88;;;;;;;;;;5031413;28;20028;-70
2023/12/20 02:13:00;;;;;;;31.02;13.63;;;;;;;;;;5043551;28;20060;-70
2023/12/20 02:15:25;;;;;;;29.73;14.18;;;;;;;;;;5041931;28;20502;-70
2023/12/20 02:17:50;;;;;;;29.88;14.30;;;;;;;;;;5040440;28;20029;-71
2023/12/20 02:20:16;;;;;;;29.97;14.33;;;;;;;;;;5029881;28;20136;-70
2023/12/20 02:22:41;;;;;;;32.00;13.68;;;;;;;;;;5040603;28;20758;-71
2023/12/20 02:25:06;;;;;;;30.33;13.47;;;;;;;;;;5037046;28;20040;-70
2023/12/20 02:27:32;;;;;;;30.13;13.68;;;;;;;;;;5037989;28;20947;-70
2023/12/20 02:29:57;;;;;;;29.58;13.75;;;;;;;;;;5037296;28;20033;-70
2023/12/20 02:32:26;;;;;;;30.13;13.20;;;;;;;;;;5037725;28;20107;-71
2023/12/20 02:34:51;;;;;;;30.33;12.75;;;;;;;;;;5038987;28;20041;-71
2023/12/20 02:37:16;;;;;;;32.30;13.48;;;;;;;;;;5038494;28;20390;-70
2023/12/20 02:39:41;;;;;;;27.43;12.60;;;;;;;;;;5039684;28;20063;-70
2023/12/20 02:42:07;;;;;;;30.35;13.10;;;;;;;;;;5042138;28;20267;-70
2023/12/20 02:44:32;;;;;;;32.33;13.30;;;;;;;;;;5055661;28;20458;-71
2023/12/20 02:46:57;;;;;;;32.93;14.17;;;;;;;;;;5039956;28;20040;-70
2023/12/20 02:49:23;;;;;;;30.35;13.15;;;;;;;;;;5024119;28;20336;-70
2023/12/20 02:51:48;;;;;;;27.60;12.82;;;;;;;;;;5037127;28;20049;-70
2023/12/20 02:54:14;;;;;;;26.52;12.90;;;;;;;;;;5041783;28;20025;-70
2023/12/20 02:56:39;;;;;;;26.02;12.40;;;;;;;;;;5029258;28;20030;-70
2023/12/20 02:59:08;;;;;;;27.30;12.87;;;;;;;;;;5044194;28;20028;-68
2023/12/20 03:01:34;;;;;;;32.28;13.27;;;;;;;;;;5045552;28;20284;-69
2023/12/20 03:03:59;;;;;;;27.42;13.35;;;;;;;;;;5039797;28;20033;-69
2023/12/20 03:06:24;;;;;;;29.20;13.33;;;;;;;;;;5040120;28;20064;-70
2023/12/20 03:08:50;;;;;;;27.30;12.93;;;;;;;;;;5056205;28;20292;-70
2023/12/20 03:11:15;;;;;;;30.63;13.23;;;;;;;;;;5037305;28;20033;-68
2023/12/20 03:13:40;;;;;;;28.25;12.95;;;;;;;;;;5038434;28;20273;-68
2023/12/20 03:16:12;;;;;;;29.27;13.37;;;;;;;;;;5052083;28;20187;-68
2023/12/20 03:18:38;;;;;;;29.90;12.65;;;;;;;;;;5028746;28;20274;-69
2023/12/20 03:21:06;;;;;;;29.38;12.43;;;;;;;;;;5036032;28;20040;-68
2023/12/20 03:23:32;;;;;;;31.13;13.27;;;;;;;;;;5040418;28;20095;-68
2023/12/20 03:25:58;;;;;;;26.60;12.20;;;;;;;;;;5041183;28;20049;-68
2023/12/20 03:28:23;;;;;;;33.55;13.73;;;;;;;;;;5041511;28;20043;-68
2023/12/20 03:30:48;;;;;;;28.55;12.73;;;;;;;;;;5047362;28;20027;-68
2023/12/20 03:33:13;;;;;;;24.48;12.10;;;;;;;;;;5061916;28;20013;-69
2023/12/20 03:35:39;;;;;;;27.13;12.83;;;;;;;;;;5061458;28;20040;-69
2023/12/20 03:38:04;;;;;;;27.10;13.07;;;;;;;;;;5063099;28;20331;-68
2023/12/20 03:40:29;;;;;;;28.10;13.10;;;;;;;;;;5057288;28;20292;-69
2023/12/20 03:42:55;;;;;;;26.60;12.70;;;;;;;;;;5058497;28;20040;-70
2023/12/20 03:45:20;;;;;;;28.55;12.63;;;;;;;;;;5036990;28;20052;-70
2023/12/20 03:47:45;;;;;;;30.17;13.57;;;;;;;;;;5036922;28;20052;-69
2023/12/20 03:50:10;;;;;;;27.92;12.70;;;;;;;;;;5037997;28;20032;-69
2023/12/20 03:52:36;;;;;;;26.70;12.70;;;;;;;;;;5040225;28;20049;-69
2023/12/20 03:55:01;;;;;;;25.45;12.13;;;;;;;;;;5034904;28;20040;-69
2023/12/20 03:57:26;;;;;;;25.60;12.05;;;;;;;;;;5035405;28;20021;-69
2023/12/20 03:59:52;;;;;;;25.65;12.45;;;;;;;;;;5035588;28;20033;-70
2023/12/20 04:02:17;;;;;;;26.70;12.63;;;;;;;;;;5024430;28;20505;-69
2023/12/20 04:04:43;;;;;;;29.73;12.77;;;;;;;;;;5035425;28;20088;-69
2023/12/20 04:07:08;;;;;;;29.05;13.15;;;;;;;;;;5037371;28;20036;-69
2023/12/20 04:09:33;;;;;;;28.40;12.73;;;;;;;;;;5038157;28;20139;-69
2023/12/20 04:11:59;;;;;;;28.45;12.60;;;;;;;;;;5040804;28;20262;-69
2023/12/20 04:14:24;;;;;;;26.13;12.57;;;;;;;;;;5039682;28;20049;-69
2023/12/20 04:16:50;;;;;;;26.42;12.50;;;;;;;;;;5039596;28;20120;-70
2023/12/20 04:19:15;;;;;;;26.98;13.50;;;;;;;;;;5038096;28;20020;-69
2023/12/20 04:21:40;;;;;;;26.77;12.18;;;;;;;;;;5037410;28;20039;-69
2023/12/20 04:24:06;;;;;;;27.42;12.30;;;;;;;;;;5027318;28;20029;-69
2023/12/20 04:26:31;;;;;;;29.13;12.50;;;;;;;;;;5040484;28;20065;-69
2023/12/20 04:28:56;;;;;;;26.35;12.07;;;;;;;;;;5034208;28;20036;-68
2023/12/20 04:31:22;;;;;;;28.33;12.32;;;;;;;;;;5034733;28;20494;-71
2023/12/20 04:33:47;;;;;;;32.23;12.73;;;;;;;;;;5037551;28;20467;-70
2023/12/20 04:36:12;;;;;;;33.13;14.63;;;;;;;;;;5038027;28;20362;-70
2023/12/20 04:38:38;;;;;;;37.00;15.90;;;;;;;;;;5038507;28;20846;-70
2023/12/20 04:41:03;;;;;;;32.90;14.55;;;;;;;;;;5037748;28;20485;-71
2023/12/20 04:43:29;;;;;;;31.58;14.18;;;;;;;;;;5026702;28;20471;-70
2023/12/20 04:45:55;;;;;;;28.80;13.73;;;;;;;;;;5039829;28;20055;-71
2023/12/20 04:48:20;;;;;;;30.00;14.07;;;;;;;;;;5038313;28;20056;-70
2023/12/20 04:50:45;;;;;;;25.95;12.35;;;;;;;;;;5037766;28;20364;-70
2023/12/20 04:53:10;;;;;;;28.95;12.60;;;;;;;;;;5033787;28;20045;-70
2023/12/20 04:55:36;;;;;;;68.15;20.50;;;;;;;;;;5034073;28;20087;-70
2023/12/20 04:58:01;;;;;;;30.80;13.73;;;;;;;;;;5036955;28;20439;-70
2023/12/20 05:00:27;;;;;;;29.40;13.80;;;;;;;;;;5027707;28;20017;-70
2023/12/20 05:02:53;;;;;;;31.48;14.18;;;;;;;;;;5037550;28;20188;-70
2023/12/20 05:05:19;;;;;;;32.58;14.13;;;;;;;;;;5033843;28;20483;-70
2023/12/20 05:07:44;;;;;;;34.20;14.93;;;;;;;;;;5037491;28;20499;-70
2023/12/20 05:10:09;;;;;;;28.45;13.05;;;;;;;;;;5049779;28;20025;-70
2023/12/20 05:12:34;;;;;;;30.60;13.75;;;;;;;;;;5037682;28;20039;-70
2023/12/20 05:15:00;;;;;;;25.55;11.98;;;;;;;;;;5045337;28;20032;-69
2023/12/20 05:17:25;;;;;;;29.95;12.75;;;;;;;;;;5044680;28;20111;-63
2023/12/20 05:19:51;;;;;;;29.90;11.98;;;;;;;;;;5042635;28;20083;-66
2023/12/20 05:22:17;;;;;;;27.02;11.52;;;;;;;;;;5043393;28;20148;-63
2023/12/20 05:24:42;;;;;;;29.60;12.25;;;;;;;;;;5044734;28;20092;-64
2023/12/20 05:27:07;;;;;;;31.20;12.02;;;;;;;;;;5044209;28;20056;-63
2023/12/20 05:29:32;;;;;;;26.95;12.15;;;;;;;;;;5040557;28;20146;-64
2023/12/20 05:31:58;;;;;;;25.42;11.98;;;;;;;;;;5039399;28;21162;-64
2023/12/20 05:34:23;;;;;;;28.07;12.47;;;;;;;;;;5061530;28;20505;-65
2023/12/20 05:36:49;;;;;;;30.45;13.25;;;;;;;;;;5044240;28;20282;-65
2023/12/20 05:39:14;;;;;;;36.80;14.45;;;;;;;;;;5031983;28;20045;-65
2023/12/20 05:41:39;;;;;;;29.02;13.10;;;;;;;;;;5043306;28;20025;-65
2023/12/20 05:44:05;;;;;;;31.20;13.27;;;;;;;;;;5042607;28;20025;-65
2023/12/20 05:46:30;;;;;;;34.37;13.43;;;;;;;;;;5031940;28;20025;-65
2023/12/20 05:48:55;;;;;;;24.50;11.43;;;;;;;;;;5041643;28;20364;-65
2023/12/20 05:51:21;;;;;;;31.60;13.25;;;;;;;;;;5042432;28;20293;-67
2023/12/20 05:53:46;;;;;;;27.90;12.55;;;;;;;;;;5040909;28;20044;-64
2023/12/20 05:56:11;;;;;;;31.83;13.30;;;;;;;;;;5056762;28;20433;-64
2023/12/20 05:58:38;;;;;;;30.85;12.13;;;;;;;;;;5044827;28;20078;-63
2023/12/20 06:01:04;;;;;;;29.60;12.20;;;;;;;;;;5046569;28;20024;-64
2023/12/20 06:03:29;;;;;;;27.17;13.20;;;;;;;;;;5026729;28;20039;-67
2023/12/20 06:05:55;;;;;;;32.83;14.50;;;;;;;;;;5044576;28;20112;-68
2023/12/20 06:08:20;;;;;;;29.90;14.25;;;;;;;;;;5025451;28;20032;-67
2023/12/20 06:10:45;;;;;;;33.17;14.98;;;;;;;;;;5043266;28;20028;-68
2023/12/20 06:13:12;;;;;;;46.90;18.77;;;;;;;;;;5043748;28;20033;-67
2023/12/20 06:15:38;;;;;;;61.60;25.42;;;;;;;;;;5068777;28;20032;-67
2023/12/20 06:18:03;;;;;;;52.42;23.30;;;;;;;;;;5066933;28;20060;-67
2023/12/20 06:20:28;;;;;;;46.15;20.50;;;;;;;;;;5062998;28;20507;-63
2023/12/20 06:22:54;;;;;;;37.38;18.17;;;;;;;;;;5058914;28;20033;-63
2023/12/20 06:25:19;;;;;;;43.22;19.05;;;;;;;;;;5048590;28;20054;-64
2023/12/20 06:27:44;;;;;;;41.65;19.80;;;;;;;;;;5041133;28;20051;-65
2023/12/20 06:30:10;;;;;;;38.17;15.98;;;;;;;;;;5041679;28;20887;-64
2023/12/20 06:32:35;;;;;;;37.10;14.82;;;;;;;;;;5038643;28;20033;-63
2023/12/20 06:35:00;;;;;;;36.08;13.95;;;;;;;;;;5038938;28;20024;-65
2023/12/20 06:37:26;;;;;;;31.25;13.93;;;;;;;;;;5041032;28;20079;-69
2023/12/20 06:39:51;;;;;;;30.52;13.68;;;;;;;;;;5037559;28;20471;-70
2023/12/20 06:42:17;;;;;;;29.67;13.18;;;;;;;;;;5039265;28;20391;-69
2023/12/20 06:44:42;;;;;;;32.58;14.15;;;;;;;;;;5040541;28;20474;-70
2023/12/20 06:47:07;;;;;;;35.30;13.88;;;;;;;;;;5040173;28;20033;-69
2023/12/20 06:49:32;;;;;;;33.57;13.63;;;;;;;;;;5029753;28;20032;-70
2023/12/20 06:51:58;;;;;;;31.63;13.07;;;;;;;;;;5039088;28;20390;-70
2023/12/20 06:54:23;;;;;;;34.80;13.68;;;;;;;;;;5042807;28;20075;-70
2023/12/20 06:56:48;;;;;;;30.80;13.45;;;;;;;;;;5042793;28;20041;-70
2023/12/20 06:59:14;;;;;;;28.75;12.63;;;;;;;;;;5030829;28;20028;-70
2023/12/20 07:01:39;;;;;;;25.08;12.85;;;;;;;;;;5041913;28;20031;-69
2023/12/20 07:04:05;;;;;;;26.23;12.87;;;;;;;;;;5037502;28;20506;-69
2023/12/20 07:06:30;;;;;;;32.65;13.65;;;;;;;;;;5045498;28;20295;-72
2023/12/20 07:08:55;;;;;;;33.10;13.68;;;;;;;;;;5042990;28;20516;-74
2023/12/20 07:11:21;;;;;;;29.90;12.77;;;;;;;;;;5037804;28;20523;-70
2023/12/20 07:13:46;;;;;;;31.67;12.15;;;;;;;;;;5029475;28;20039;-71
2023/12/20 07:16:11;;;;;;;30.48;12.02;;;;;;;;;;5038472;28;20063;-70
2023/12/20 07:18:37;;;;;;;27.60;12.40;;;;;;;;;;5049933;28;20028;-70
2023/12/20 07:21:02;;;;;;;28.38;12.30;;;;;;;;;;5059313;28;20282;-69
2023/12/20 07:23:28;;;;;;;22.83;10.90;;;;;;;;;;5049028;28;20049;-68
2023/12/20 07:25:53;;;;;;;32.25;11.95;;;;;;;;;;5028248;28;20601;-66
2023/12/20 07:28:19;;;;;;;23.85;10.73;;;;;;;-0.89;nan;100179.66;5039684;28;20538;-69
2023/12/20 07:30:44;;;;;;;28.80;12.27;;;;;;;-0.79;nan;100180.38;5036289;28;20067;-69
2023/12/20 07:33:12;;;;;;;29.63;12.63;;;;;;;-0.81;nan;100205.56;5038751;28;20558;-67
2023/12/20 07:35:37;;;;;;;28.45;11.88;;;;;;;;;;5040387;28;20034;-68
2023/12/20 07:38:02;;;;;;;28.37;12.17;;;;;;;;;;5037410;28;20036;-68
2023/12/20 07:40:27;;;;;;;26.15;11.65;;;;;;;;;;5044690;28;20278;-69
2023/12/20 07:42:53;;;;;;;29.97;12.73;;;;;;;;;;5053650;28;20080;-69
2023/12/20 07:45:18;;;;;;;30.48;13.38;;;;;;;;;;5056380;28;20280;-69
2023/12/20 07:47:43;;;;;;;28.20;12.70;;;;;;;;;;5052955;28;20026;-69
2023/12/20 07:50:10;;;;;;;30.55;12.82;;;;;;;;;;5045025;28;20354;-69
2023/12/20 07:52:35;;;;;;;29.98;11.73;;;;;;;;;;5039262;28;20056;-66
2023/12/20 07:55:01;;;;;;;26.42;11.65;;;;;;;;;;5035618;28;20039;-65
2023/12/20 07:57:28;;;;;;;25.67;12.18;;;;;;;;;;5038134;28;20031;-66
2023/12/20 07:59:53;;;;;;;25.13;12.00;;;;;;;;;;5026470;28;20036;-69
2023/12/20 08:02:19;;;;;;;27.33;13.07;;;;;;;-0.15;nan;100218.66;5040838;28;20032;-70
2023/12/20 08:04:44;;;;;;;33.78;12.43;;;;;;;-0.15;nan;100209.13;5034421;28;21066;-69
2023/12/20 08:07:10;;;;;;;26.52;12.48;;;;;;;0.13;nan;100238.13;5041134;28;20646;-66
2023/12/20 08:09:36;;;;;;;27.23;12.88;;;;;;;0.20;nan;100228.72;5038582;28;20033;-66
2023/12/20 08:12:02;;;;;;;29.25;14.40;;;;;;;0.29;nan;100226.97;5019751;28;20040;-65
2023/12/20 08:14:28;;;;;;;25.20;11.90;;;;;;;0.36;nan;100225.34;5038187;28;20034;-68
2023/12/20 08:16:53;;;;;;;28.95;12.05;;;;;;;0.23;nan;100212.06;5038913;28;20040;-68
2023/12/20 08:19:19;;;;;;;27.88;12.57;;;;;;;0.19;nan;100210.75;5037060;28;20505;-66
2023/12/20 08:21:44;;;;;;;26.95;12.27;;;;;;;0.34;nan;100222.09;5036386;28;20108;-66
2023/12/20 08:24:09;;;;;;;29.27;12.20;;;;;;;0.24;nan;100213.69;5036996;28;20030;-68
2023/12/20 08:26:35;;;;;;;31.70;14.07;;;;;;;0.23;nan;100235.38;5040646;28;20021;-65
2023/12/20 08:29:00;;;;;;;33.55;16.20;;;;;;;0.39;nan;100242.34;5027100;28;20078;-69
2023/12/20 08:31:26;;;;;;;34.20;14.00;;;;;;;0.63;nan;100244.09;5039036;28;20029;-70
2023/12/20 08:33:53;;;;;;;31.40;14.13;;;;;;;0.67;nan;100200.53;5039058;28;20029;-68
2023/12/20 08:36:21;;;;;;;27.17;12.25;;;;;;;1.01;nan;100211.47;5037480;28;20489;-69
2023/12/20 08:38:46;;;;;;;24.17;11.32;;;;;;;1.14;nan;100205.72;5029091;28;20751;-68
2023/12/20 08:41:12;;;;;;;21.33;10.65;;;;;;;1.20;nan;100204.28;5037649;28;20044;-69
2023/12/20 08:43:40;;;;;;;25.67;11.73;;;;;;;1.31;nan;100211.66;5021916;28;20017;-66
2023/12/20 08:46:06;;;;;;;25.52;11.73;;;;;;;1.05;nan;100176.44;5021997;28;20052;-68
2023/12/20 08:48:31;;;;;;;27.20;12.27;;;;;;;1.19;nan;100194.84;5034322;28;20823;-66
2023/12/20 08:50:56;;;;;;;29.02;12.93;;;;;;;1.35;nan;100194.78;5018557;28;20033;-68
2023/12/20 08:53:22;;;;;;;33.47;13.45;;;;;;;1.28;nan;100197.25;5026801;28;20045;-73
2023/12/20 08:55:47;;;;;;;33.50;12.93;;;;;;;1.43;nan;100207.72;5021975;28;20032;-73
2023/12/20 08:58:14;;;;;;;27.20;12.50;;;;;;;1.49;nan;100193.28;5037711;28;20434;-71
2023/12/20 09:00:40;;;;;;;27.30;11.43;;;;;;;1.65;nan;100187.16;5034880;28;20029;-70
2023/12/20 09:03:05;;;;;;;25.83;12.27;;;;;;;1.47;nan;100182.25;5039034;28;20029;-70
2023/12/20 09:05:31;;;;;;;21.25;10.15;;;;;;;1.39;nan;100198.69;5037220;28;20054;-69
2023/12/20 09:07:56;;;;;;;25.23;11.77;;;;;;;1.29;nan;100179.88;5025213;28;20052;-72
2023/12/20 09:10:22;;;;;;;26.13;11.73;;;;;;;1.36;nan;100182.63;5036799;28;20034;-70
2023/12/20 09:12:49;;;;;;;26.13;12.38;;;;;;;1.40;nan;100176.94;5038491;28;20062;-68
2023/12/20 09:15:15;;;;;;;23.98;11.27;;;;;;;1.22;nan;100166.81;5032780;28;20613;-68
2023/12/20 09:17:41;;;;;;;29.50;12.77;;;;;;;1.15;nan;100154.66;5037559;28;20797;-71
2023/12/20 09:20:08;;;;;;;27.83;12.68;;;;;;;1.13;nan;100148.88;5038306;28;20393;-70
2023/12/20 09:22:34;;;;;;;31.85;12.45;;;;;;;1.23;nan;100157.25;5037586;28;20036;-72
2023/12/20 09:25:00;;;;;;;28.08;11.77;;;;;;;1.24;nan;100151.88;5035355;28;20484;-73
2023/12/20 09:27:26;;;;;;;27.38;11.95;;;;;;;1.21;nan;100136.66;5035148;28;20026;-73
2023/12/20 09:29:51;;;;;;;28.67;12.40;;;;;;;1.31;nan;100146.81;5036720;28;20099;-73
2023/12/20 09:32:16;;;;;;;30.98;11.65;;;;;;;1.33;nan;100142.25;5036671;28;20049;-73
2023/12/20 09:34:42;;;;;;;26.05;11.63;;;;;;;1.37;nan;100140.16;5037635;28;20444;-72
2023/12/20 09:37:07;;;;;;;24.95;11.48;;;;;;;1.27;nan;100107.44;5022216;28;20049;-73
2023/12/20 09:39:33;;;;;;;32.30;11.32;;;;;;;1.43;nan;100132.47;5024905;28;20075;-72
2023/12/20 09:42:06;;;;;;;24.30;11.48;;;;;;;1.54;nan;100135.66;5037375;28;20029;-72
2023/12/20 09:44:34;;;;;;;23.63;11.57;;;;;;;1.60;nan;100134.97;5036343;28;20473;-72
2023/12/20 09:47:02;;;;;;;29.85;12.38;;;;;;;1.61;nan;100129.63;5021472;28;20548;-72
2023/12/20 09:49:28;;;;;;;31.42;12.30;;;;;;;1.56;nan;100126.72;5034723;28;20056;-73
2023/12/20 09:51:54;;;;;;;30.85;13.27;;;;;;;1.58;nan;100109.22;5021512;28;20076;-72
2023/12/20 09:54:21;;;;;;;25.40;12.38;;;;;;;1.72;nan;100120.59;5036668;28;20087;-72
2023/12/20 09:56:47;;;;;;;28.45;13.07;;;;;;;1.80;nan;100123.16;5027455;28;20036;-72
2023/12/20 09:59:13;;;;;;;34.90;13.02;;;;;;;1.81;nan;100124.75;5039044;28;20017;-72
2023/12/20 10:01:40;;;;;;;30.92;13.07;;;;;;;1.77;nan;100109.69;5041096;28;20028;-72
2023/12/20 10:04:08;;;;;;;35.75;14.25;;;;;;;1.91;nan;100127.91;5024148;28;20356;-72
2023/12/20 10:06:44;;;;;;;33.77;14.90;;;;;;;1.90;nan;100109.94;5037898;28;20041;-74
2023/12/20 10:09:10;;;;;;;29.33;13.07;;;;;;;1.99;nan;100116.66;5022337;28;20529;-72
2023/12/20 10:11:37;;;;;;;34.42;13.65;;;;;;;2.10;nan;100125.81;5040680;28;20103;-72
2023/12/20 10:14:04;;;;;;;28.75;12.60;;;;;;;2.14;nan;100121.88;5040215;28;20479;-74
2023/12/20 10:16:30;;;;;;;25.30;12.02;;;;;;;2.19;nan;100124.75;5039580;28;20491;-73
2023/12/20 10:18:56;;;;;;;28.52;13.35;;;;;;;2.24;nan;100116.44;5041339;28;20025;-72
2023/12/20 10:21:24;;;;;;;29.73;13.40;;;;;;;2.17;nan;100105.13;5039308;28;20104;-73
2023/12/20 10:23:50;;;;;;;29.55;13.98;;;;;;;2.30;nan;100113.16;5039360;28;20021;-72
2023/12/20 10:26:23;;;;;;;29.38;14.32;;;;;;;2.34;nan;100115.19;5056793;28;20089;-72
2023/12/20 10:28:53;;;;;;;26.02;12.90;;;;;;;2.37;nan;100119.25;5063815;28;20022;-73
2023/12/20 10:31:45;;;;;;;23.60;12.15;;;;;;;2.12;nan;100064.91;5050392;28;20063;-72
2023/12/20 10:34:10;;;;;;;26.30;12.35;;;;;;;2.32;nan;100086.00;5062267;28;20055;-72
2023/12/20 10:36:36;;;;;;;26.35;11.75;;;;;;;2.50;nan;100105.63;5065234;28;20024;-72
2023/12/20 10:39:02;;;;;;;25.13;12.57;;;;;;;2.55;nan;100106.69;5041911;28;20467;-72
2023/12/20 10:41:30;;;;;;;23.17;11.00;;;;;;;2.58;nan;100102.13;5031723;28;20032;-73
2023/12/20 10:44:05;;;;;;;23.88;10.88;;;;;;;2.51;nan;100081.22;5041553;28;20032;-74
2023/12/20 10:46:34;;;;;;;21.63;11.68;;;;;;;2.51;nan;100070.84;5039373;28;20058;-74
2023/12/20 10:49:02;;;;;;;23.83;11.43;;;;;;;2.62;nan;100080.78;5040248;28;20036;-72
2023/12/20 10:51:29;;;;;;;30.42;11.98;;;;;;;2.69;nan;100081.69;5020574;28;20415;-71
2023/12/20 10:53:56;;;;;;;23.80;11.90;;;;;;;2.75;nan;100080.97;5039414;28;20044;-73
2023/12/20 10:56:23;;;;;;;21.90;11.27;;;;;;;2.77;nan;100075.56;5042465;28;20386;-72
2023/12/20 10:58:49;;;;;;;25.15;11.73;;;;;;;2.83;nan;100071.44;5035409;28;20238;-73
2023/12/20 11:01:17;;;;;;;30.52;13.07;;;;;;;2.84;nan;100058.25;5040299;28;20017;-72
2023/12/20 11:03:48;;;;;;;25.48;12.23;;;;;;;2.91;nan;100061.72;5043343;28;20025;-70
2023/12/20 11:06:29;;;;;;;25.95;12.45;;;;;;;3.00;nan;100057.22;5040803;28;20031;-72
2023/12/20 11:09:22;;;;;;;23.83;12.23;;;;;;;3.07;nan;100052.09;5036179;28;20051;-73
2023/12/20 11:11:59;;;;;;;29.17;12.95;;;;;;;3.12;nan;100049.75;5038492;28;20025;-71
2023/12/20 11:14:40;;;;;;;33.05;13.18;;;;;;;3.03;nan;100030.84;5037021;28;20048;-73
2023/12/20 11:17:11;;;;;;;32.75;14.50;;;;;;;3.25;nan;100044.66;5039844;28;20466;-73
2023/12/20 11:20:03;;;;;;;33.88;14.25;;;;;;;3.32;nan;100039.53;5039205;28;20029;-71
2023/12/20 11:22:33;;;;;;;25.15;13.00;;;;;;;3.46;nan;100036.06;5023650;28;20063;-71
2023/12/20 11:25:19;;;;;;;28.98;13.00;;;;;;;3.57;nan;100026.94;5023109;28;20041;-66
2023/12/20 11:28:07;;;;;;;30.17;13.15;;;;;;;3.68;nan;100018.59;5021244;28;20083;-64
2023/12/20 11:30:52;;;;;;;30.83;13.98;;;;;;;3.93;nan;100033.81;5037833;28;20037;-67
2023/12/20 11:33:25;;;;;;;36.47;14.60;;;;;;;4.05;nan;100033.09;5036904;28;20096;-66
2023/12/20 11:35:50;;;;;;;35.38;14.35;;;;;;;4.17;nan;100035.97;5039886;28;20108;-65
2023/12/20 11:38:16;;;;;;;28.00;13.57;;;;;;;4.25;nan;100027.19;5007479;28;20109;-66
2023/12/20 11:40:43;;;;;;;38.58;13.35;;;;;;;4.34;nan;100014.81;5024632;28;20025;-68
2023/12/20 11:43:09;;;;;;;29.60;14.10;;;;;;;4.45;nan;100022.06;5039619;28;20733;-69
2023/12/20 11:45:35;;;;;;;32.25;14.05;;;;;;;4.41;nan;100003.41;5021046;28;20064;-66
2023/12/20 11:48:04;;;;;;;30.50;13.60;;;;;;;4.59;nan;100022.94;5036790;28;20112;-67
2023/12/20 11:50:30;;;;;;;35.57;14.07;;;;;;;4.59;nan;100021.13;5037815;28;20021;-67
2023/12/20 11:52:56;;;;;;;29.23;14.23;;;;;;;4.66;nan;100008.13;5038749;28;20107;-67
2023/12/20 11:55:23;;;;;;;28.17;12.68;;;;;;;4.81;nan;100014.00;5037315;28;20662;-69
2023/12/20 11:57:50;;;;;;;29.88;13.32;;;;;;;4.74;nan;100000.13;5039207;28;20029;-64
2023/12/20 12:00:16;;;;;;;26.08;12.55;;;;;;;4.88;nan;100014.00;5038132;28;20434;-66
2023/12/20 12:02:42;;;;;;;27.02;12.30;;;;;;;4.85;nan;99993.53;5024311;28;20031;-65
2023/12/20 12:05:08;;;;;;;25.05;12.88;;;;;;;4.97;nan;100012.03;5037362;28;20029;-67
2023/12/20 12:07:36;;;;;;;30.02;13.45;;;;;;;5.06;nan;100010.84;5039828;28;20383;-66
2023/12/20 12:10:03;;;;;;;30.00;13.25;;;;;;;5.08;nan;99993.19;5040575;28;20104;-66
2023/12/20 12:12:30;;;;;;;26.60;13.18;;;;;;;5.21;nan;100005.44;5041549;28;20120;-66
2023/12/20 12:14:57;;;;;;;27.17;12.50;;;;;;;5.30;nan;100001.63;5038299;28;20367;-66
2023/12/20 12:17:23;;;;;;;28.17;12.52;;;;;;;5.40;nan;100002.03;5035715;28;20021;-69
2023/12/20 12:19:48;;;;;;;30.80;13.55;;;;;;;5.47;nan;100002.84;5038631;28;20056;-68
2023/12/20 12:22:16;;;;;;;32.17;13.32;;;;;;;5.48;nan;99994.00;5034379;28;20025;-66
2023/12/20 12:24:43;;;;;;;28.05;13.02;;;;;;;5.55;nan;100001.81;5038125;28;20031;-69
2023/12/20 12:27:09;;;;;;;31.05;14.52;;;;;;;5.64;nan;99998.00;5035238;28;20032;-70
2023/12/20 12:29:35;;;;;;;34.80;16.25;;;;;;;5.63;nan;99985.16;5039525;28;20112;-69
2023/12/20 12:32:04;;;;;;;28.02;14.05;;;;;;;5.72;nan;99987.38;5041528;28;20562;-69
2023/12/20 12:34:30;;;;;;;30.58;14.65;;;;;;;5.84;nan;99992.78;5036881;28;20028;-69
2023/12/20 12:36:57;;;;;;;26.75;13.95;;;;;;;5.95;nan;99996.59;5033672;28;20442;-70
2023/12/20 12:39:25;;;;;;;30.13;13.77;;;;;;;6.01;nan;99992.34;5040071;28;20037;-67
2023/12/20 12:41:50;;;;;;;27.25;14.32;;;;;;;6.10;nan;100001.59;5035793;28;20041;-69
2023/12/20 12:44:15;;;;;;;27.02;13.55;;;;;;;6.14;nan;99992.34;5034404;28;20390;-67
2023/12/20 12:46:41;;;;;;;34.95;14.38;;;;;;;6.13;nan;99975.84;5020471;28;20128;-70
2023/12/20 12:49:07;;;;;;;30.48;14.18;;;;;;;6.14;nan;99966.19;5038422;28;20041;-68
2023/12/20 12:51:32;;;;;;;29.35;13.65;;;;;;;6.27;nan;99973.97;5021542;28;20051;-70
2023/12/20 12:53:58;;;;;;;31.30;14.43;;;;;;;6.25;nan;99960.31;5024144;28;20044;-68
2023/12/20 12:56:23;;;;;;;30.52;14.02;;;;;;;6.39;nan;99977.56;5039283;28;20618;-69
2023/12/20 12:58:49;;;;;;;31.70;14.43;;;;;;;6.43;nan;99977.16;5037093;28;20025;-67
2023/12/20 13:01:14;;;;;;;34.83;15.20;;;;;;;6.41;nan;99963.47;5038472;28;20033;-68